createdAt,value
2023-01-23T00:00:08.343Z,2.17
2023-01-23T00:03:36.944Z,2.15
2023-01-23T00:07:08.720Z,2.20
2023-01-23T00:10:37.359Z,2.03
2023-01-23T00:14:06.047Z,2.22
2023-01-23T00:17:34.823Z,1.90
2023-01-23T00:21:03.572Z,1.92
2023-01-23T00:24:35.037Z,2.30
2023-01-23T00:28:03.694Z,1.70
2023-01-23T00:30:33.381Z,1.98
2023-01-23T00:33:03.279Z,1.55
2023-01-23T00:35:32.859Z,1.80
2023-01-23T00:39:01.499Z,1.40
2023-01-23T00:42:30.271Z,1.42
2023-01-23T00:45:59.068Z,1.40
2023-01-23T00:49:27.768Z,1.20
2023-01-23T00:52:56.413Z,1.60
2023-01-23T00:56:25.015Z,1.30
2023-01-23T00:59:53.671Z,0.95
2023-01-23T01:03:22.359Z,1.33
2023-01-23T01:06:51.068Z,1.10
2023-01-23T01:10:19.959Z,1.40
2023-01-23T01:12:49.863Z,1.20
2023-01-23T01:16:18.552Z,1.30
2023-01-23T01:19:47.264Z,1.40
2023-01-23T01:23:15.920Z,0.90
2023-01-23T01:26:44.614Z,1.48
2023-01-23T01:30:13.268Z,1.40
2023-01-23T01:33:41.942Z,1.50
2023-01-23T01:36:44.770Z,0.98
2023-01-23T01:40:13.442Z,1.10
2023-01-23T01:43:42.118Z,1.10
2023-01-23T01:46:59.431Z,1.10
2023-01-23T01:50:30.969Z,1.10
2023-01-23T01:53:59.706Z,1.83
2023-01-23T01:57:31.176Z,1.38
2023-01-23T02:01:11.903Z,1.13
2023-01-23T02:03:41.855Z,1.23
2023-01-23T02:06:11.605Z,1.05
2023-01-23T02:08:52.627Z,1.35
2023-01-23T02:11:22.496Z,1.10
2023-01-23T02:14:51.137Z,1.08
2023-01-23T02:17:21.795Z,0.90
2023-01-23T02:19:59.500Z,0.95
2023-01-23T02:22:47.081Z,0.80
2023-01-23T02:25:54.379Z,0.90
2023-01-23T02:29:25.842Z,0.68
2023-01-23T02:32:54.437Z,0.68
2023-01-23T02:36:23.175Z,0.90
2023-01-23T02:39:03.465Z,0.93
2023-01-23T02:41:53.856Z,0.90
2023-01-23T02:44:29.540Z,0.90
2023-01-23T02:47:06.863Z,0.90
2023-01-23T02:49:36.731Z,1.10
2023-01-23T02:52:07.677Z,0.90
2023-01-23T02:55:36.457Z,1.00
2023-01-23T02:58:24.250Z,1.10
2023-01-23T03:01:52.876Z,0.98
2023-01-23T03:05:21.512Z,1.13
2023-01-23T03:08:50.176Z,0.90
2023-01-23T03:12:18.821Z,0.90
2023-01-23T03:15:47.622Z,1.00
2023-01-23T03:19:16.325Z,1.10
2023-01-23T03:22:44.952Z,1.60
2023-01-23T03:25:28.406Z,1.05
2023-01-23T03:28:55.370Z,1.20
2023-01-23T03:32:24.027Z,1.08
2023-01-23T03:35:52.683Z,1.33
2023-01-23T03:39:19.843Z,1.13
2023-01-23T03:42:49.517Z,1.10
2023-01-23T03:46:18.208Z,1.10
2023-01-23T03:49:46.831Z,1.40
2023-01-23T03:53:15.572Z,1.00
2023-01-23T03:56:44.163Z,1.40
2023-01-23T04:00:12.824Z,1.20
2023-01-23T04:03:41.428Z,1.17
2023-01-23T04:07:10.216Z,1.50
2023-01-23T04:10:38.939Z,1.52
2023-01-23T04:14:07.626Z,1.25
2023-01-23T04:17:36.227Z,1.35
2023-01-23T04:21:05.070Z,1.40
2023-01-23T04:24:33.751Z,1.33
2023-01-23T04:28:02.389Z,1.27
2023-01-23T04:31:31.111Z,1.20
2023-01-23T04:34:59.816Z,1.40
2023-01-23T04:38:28.605Z,1.83
2023-01-23T04:41:28.131Z,1.35
2023-01-23T04:43:57.780Z,1.67
2023-01-23T04:47:26.452Z,1.40
2023-01-23T04:50:55.122Z,1.42
2023-01-23T04:54:23.933Z,1.30
2023-01-23T04:57:37.325Z,1.60
2023-01-23T05:00:07.640Z,2.15
2023-01-23T05:02:37.302Z,1.42
2023-01-23T05:05:08.151Z,1.40
2023-01-23T05:07:37.823Z,1.38
2023-01-23T05:11:06.635Z,1.60
2023-01-23T05:13:55.824Z,1.52
2023-01-23T05:16:25.503Z,1.30
2023-01-23T05:18:55.162Z,1.42
2023-01-23T05:21:24.739Z,1.60
2023-01-23T05:23:54.412Z,1.58
2023-01-23T05:26:23.959Z,1.60
2023-01-23T05:28:53.600Z,1.73
2023-01-23T05:31:23.305Z,1.60
2023-01-23T05:33:52.993Z,1.73
2023-01-23T05:36:22.630Z,1.40
2023-01-23T05:38:52.222Z,1.75
2023-01-23T05:41:23.024Z,1.63
2023-01-23T05:44:52.794Z,1.75
2023-01-23T05:48:21.399Z,2.28
2023-01-23T05:51:24.912Z,2.95
2023-01-23T05:53:54.494Z,1.73
2023-01-23T05:57:23.356Z,2.13
2023-01-23T06:00:52.082Z,2.08
2023-01-23T06:04:20.717Z,2.58
2023-01-23T06:07:49.384Z,2.78
2023-01-23T06:11:18.136Z,2.53
2023-01-23T06:14:46.719Z,2.60
2023-01-23T06:18:15.384Z,2.55
2023-01-23T06:21:44.154Z,2.40
2023-01-23T06:25:12.780Z,2.65
2023-01-23T06:28:41.468Z,2.65
2023-01-23T06:32:10.245Z,2.55
2023-01-23T06:34:39.976Z,2.63
2023-01-23T06:37:09.680Z,2.45
2023-01-23T06:40:38.348Z,2.67
2023-01-23T06:44:06.952Z,2.83
2023-01-23T06:47:35.634Z,3.40
2023-01-23T06:50:05.955Z,3.63
2023-01-23T06:52:35.618Z,3.40
2023-01-23T06:55:05.449Z,3.28
2023-01-23T06:57:35.912Z,3.30
2023-01-23T07:00:06.564Z,3.42
2023-01-23T07:02:36.478Z,3.03
2023-01-23T07:05:06.300Z,3.33
2023-01-23T07:07:36.889Z,3.83
2023-01-23T07:10:06.909Z,3.60
2023-01-23T07:13:35.557Z,3.65
2023-01-23T07:17:04.238Z,3.90
2023-01-23T07:20:32.950Z,3.83
2023-01-23T07:24:01.597Z,3.85
2023-01-23T07:27:30.265Z,3.88
2023-01-23T07:30:59.096Z,4.10
2023-01-23T07:34:27.868Z,4.72
2023-01-23T07:37:56.503Z,3.78
2023-01-23T07:40:28.501Z,4.18
2023-01-23T07:43:57.150Z,4.35
2023-01-23T07:47:25.803Z,3.63
2023-01-23T07:50:54.550Z,4.97
2023-01-23T07:54:23.305Z,4.05
2023-01-23T07:56:53.479Z,4.88
2023-01-23T07:59:23.069Z,4.50
2023-01-23T08:01:54.294Z,4.45
2023-01-23T08:04:23.959Z,4.72
2023-01-23T08:06:53.577Z,4.57
2023-01-23T08:09:23.203Z,4.65
2023-01-23T08:11:54.366Z,5.40
2023-01-23T08:14:24.039Z,4.22
2023-01-23T08:16:55.316Z,4.20
2023-01-23T08:19:26.954Z,4.70
2023-01-23T08:21:56.568Z,4.70
2023-01-23T08:24:26.460Z,4.82
2023-01-23T08:26:56.031Z,4.45
2023-01-23T08:29:25.626Z,4.35
2023-01-23T08:32:54.367Z,4.30
2023-01-23T08:36:22.967Z,4.20
2023-01-23T08:39:51.738Z,4.45
2023-01-23T08:43:21.467Z,4.55
2023-01-23T08:46:53.247Z,4.80
2023-01-23T08:50:06.972Z,5.13
2023-01-23T08:53:35.651Z,4.47
2023-01-23T08:56:39.396Z,4.57
2023-01-23T08:59:09.142Z,4.70
2023-01-23T09:01:38.749Z,5.80
2023-01-23T09:05:07.646Z,5.35
2023-01-23T09:08:36.391Z,4.57
2023-01-23T09:12:05.076Z,4.72
2023-01-23T09:15:33.713Z,5.05
2023-01-23T09:19:02.401Z,4.97
2023-01-23T09:22:31.138Z,5.43
2023-01-23T09:25:20.515Z,4.72
2023-01-23T09:28:49.188Z,4.18
2023-01-23T09:32:17.987Z,4.70
2023-01-23T09:35:46.662Z,4.63
2023-01-23T09:39:15.391Z,4.78
2023-01-23T09:42:44.378Z,4.53
2023-01-23T09:46:13.223Z,5.10
2023-01-23T09:49:45.177Z,5.50
2023-01-23T09:53:13.916Z,4.70
2023-01-23T09:56:48.829Z,5.18
2023-01-23T09:59:58.432Z,5.78
2023-01-23T10:03:28.992Z,5.68
2023-01-23T10:07:13.342Z,5.32
2023-01-23T10:11:19.145Z,5.03
2023-01-23T10:16:57.558Z,6.10
2023-01-23T10:19:57.443Z,5.38
2023-01-23T10:22:58.679Z,5.35
2023-01-23T10:25:34.688Z,5.88
2023-01-23T10:28:28.546Z,6.03
2023-01-23T10:34:12.780Z,6.10
2023-01-23T10:36:55.193Z,6.03
2023-01-23T10:40:26.661Z,6.35
2023-01-23T10:43:55.302Z,5.97
2023-01-23T10:47:32.796Z,6.35
2023-01-23T10:51:02.187Z,6.05
2023-01-23T10:54:48.695Z,6.70
2023-01-23T10:57:37.998Z,5.93
2023-01-23T11:00:47.038Z,5.43
2023-01-23T11:03:42.584Z,6.15
2023-01-23T11:07:11.263Z,5.85
2023-01-23T11:10:02.500Z,6.75
2023-01-23T11:13:31.173Z,6.30
2023-01-23T11:16:59.883Z,6.30
2023-01-23T11:20:28.522Z,6.43
2023-01-23T11:23:35.812Z,6.18
2023-01-23T11:27:13.374Z,6.38
2023-01-23T11:30:45.155Z,6.20
2023-01-23T11:33:41.510Z,5.95
2023-01-23T11:36:20.157Z,6.63
2023-01-23T11:39:01.636Z,7.43
2023-01-23T11:41:34.020Z,6.43
2023-01-23T11:44:13.022Z,6.40
2023-01-23T11:47:03.567Z,6.43
2023-01-23T11:49:57.765Z,6.55
2023-01-23T11:52:38.107Z,6.22
2023-01-23T11:55:38.138Z,6.75
2023-01-23T11:58:32.104Z,6.50
2023-01-23T12:01:15.794Z,7.00
2023-01-23T12:04:00.740Z,5.95
2023-01-23T12:06:45.561Z,5.82
2023-01-23T12:09:19.977Z,5.57
2023-01-23T12:12:23.192Z,5.00
2023-01-23T12:14:57.382Z,5.25
2023-01-23T12:18:09.000Z,5.75
2023-01-23T12:21:32.955Z,4.65
2023-01-23T12:24:54.162Z,5.27
2023-01-23T12:28:31.616Z,4.75
2023-01-23T12:31:46.567Z,4.55
2023-01-23T12:34:40.323Z,5.53
2023-01-23T12:37:29.184Z,4.85
2023-01-23T12:40:39.399Z,4.50
2023-01-23T12:44:00.547Z,4.00
2023-01-23T12:47:32.078Z,3.65
2023-01-23T12:50:40.982Z,3.88
2023-01-23T12:54:13.108Z,3.85
2023-01-23T12:56:43.748Z,3.58
2023-01-23T12:59:24.209Z,3.35
2023-01-23T13:02:08.763Z,3.35
2023-01-23T13:04:47.891Z,3.17
2023-01-23T13:07:26.323Z,3.05
2023-01-23T13:10:08.174Z,3.40
2023-01-23T13:12:38.186Z,2.85
2023-01-23T13:15:30.738Z,2.80
2023-01-23T13:19:05.173Z,2.70
2023-01-23T13:22:32.731Z,2.45
2023-01-23T13:25:19.164Z,2.80
2023-01-23T13:27:59.851Z,2.58
2023-01-23T13:30:36.590Z,2.53
2023-01-23T13:33:09.098Z,2.70
2023-01-23T13:35:46.210Z,3.30
2023-01-23T13:38:25.117Z,2.83
2023-01-23T13:41:06.650Z,3.05
2023-01-23T13:44:59.621Z,3.00
2023-01-23T14:24:22.166Z,2.63
2023-01-23T14:27:54.156Z,2.75
2023-01-23T14:31:24.556Z,2.80
2023-01-23T14:34:56.092Z,2.90
2023-01-23T14:38:24.807Z,3.85
2023-01-23T14:41:53.624Z,2.80
2023-01-23T14:45:22.530Z,3.00
2023-01-23T14:48:51.390Z,3.17
2023-01-23T14:52:22.665Z,3.13
2023-01-23T14:56:00.490Z,2.75
2023-01-23T14:59:29.218Z,3.00
2023-01-23T15:04:32.516Z,2.83
2023-01-23T15:07:04.562Z,3.30
2023-01-23T15:10:33.253Z,2.70
2023-01-23T15:13:48.070Z,2.75
2023-01-23T15:17:16.791Z,2.65
2023-01-23T15:20:45.486Z,3.08
2023-01-23T15:23:41.210Z,2.63
2023-01-23T15:27:16.063Z,3.22
2023-01-23T15:30:43.147Z,2.63
2023-01-23T15:34:20.936Z,2.63
2023-01-23T15:38:09.687Z,2.85
2023-01-23T15:41:38.397Z,2.35
2023-01-23T15:45:07.093Z,2.70
2023-01-23T15:48:35.803Z,2.67
2023-01-23T15:52:04.539Z,2.35
2023-01-23T15:55:33.320Z,2.20
2023-01-23T15:59:02.048Z,2.42
2023-01-23T16:02:33.028Z,2.50
2023-01-23T16:06:02.262Z,2.67
2023-01-23T16:08:31.846Z,2.50
2023-01-23T16:11:01.480Z,2.35
2023-01-23T16:13:31.100Z,2.30
2023-01-23T16:16:00.822Z,2.50
2023-01-23T16:18:30.445Z,2.20
2023-01-23T16:21:00.086Z,1.92
2023-01-23T16:23:42.363Z,2.20
2023-01-23T16:27:24.933Z,2.13
2023-01-23T16:30:53.795Z,2.42
2023-01-23T16:34:22.586Z,2.42
2023-01-23T16:37:57.077Z,2.10
2023-01-23T16:41:25.813Z,2.40
2023-01-23T16:44:54.501Z,2.20
2023-01-23T16:48:30.228Z,2.45
2023-01-23T16:51:58.884Z,2.05
2023-01-23T16:55:27.658Z,1.85
2023-01-23T16:58:56.278Z,2.00
2023-01-23T17:01:26.445Z,2.08
2023-01-23T17:04:05.944Z,2.08
2023-01-23T17:06:36.022Z,2.08
2023-01-23T17:09:05.770Z,2.00
2023-01-23T17:11:50.467Z,2.00
2023-01-23T17:14:28.512Z,2.00
2023-01-23T17:17:57.197Z,2.20
2023-01-23T17:21:25.774Z,2.30
2023-01-23T17:24:57.404Z,2.13
2023-01-23T17:28:26.083Z,1.70
2023-01-23T17:31:54.976Z,1.85
2023-01-23T17:35:26.512Z,2.20
2023-01-23T17:38:53.477Z,1.95
2023-01-23T17:42:22.090Z,1.77
2023-01-23T17:45:56.776Z,2.03
2023-01-23T17:49:31.320Z,2.05
2023-01-23T17:52:59.985Z,1.70
2023-01-23T17:56:28.693Z,1.80
2023-01-23T17:59:57.412Z,1.70
2023-01-23T18:03:38.217Z,1.65
2023-01-23T18:06:09.900Z,1.80
2023-01-23T18:09:38.606Z,2.00
2023-01-23T18:13:07.661Z,2.17
2023-01-23T18:16:35.030Z,1.88
2023-01-23T18:20:03.763Z,1.60
2023-01-23T18:23:32.517Z,2.42
2023-01-23T18:26:33.905Z,1.50
2023-01-23T18:29:42.820Z,1.92
2023-01-23T18:33:16.951Z,1.75
2023-01-23T18:36:48.609Z,2.00
2023-01-23T18:40:00.575Z,1.80
2023-01-23T18:42:53.295Z,1.60
2023-01-23T18:46:22.235Z,1.55
2023-01-23T18:49:32.335Z,1.75
2023-01-23T18:53:13.598Z,1.55
2023-01-23T18:56:54.347Z,1.60
2023-01-23T18:59:43.588Z,1.90
2023-01-23T19:27:59.480Z,1.40
2023-01-23T19:30:29.593Z,1.30
2023-01-23T19:32:59.305Z,1.65
2023-01-23T19:35:29.150Z,1.60
2023-01-23T19:37:59.168Z,1.48
2023-01-23T19:40:28.774Z,1.80
2023-01-23T19:43:13.584Z,1.30
2023-01-23T19:45:44.675Z,1.20
2023-01-23T19:48:15.091Z,1.23
2023-01-23T19:50:45.587Z,1.45
2023-01-23T19:53:16.284Z,1.40
2023-01-23T19:55:45.923Z,1.17
2023-01-23T19:58:15.600Z,1.20
2023-01-23T20:00:45.292Z,1.35
2023-01-23T20:03:16.201Z,1.25
2023-01-23T20:05:45.969Z,1.30
2023-01-23T20:09:14.725Z,1.67
2023-01-23T20:12:43.389Z,0.90
2023-01-23T20:15:52.670Z,1.38
2023-01-23T20:19:21.321Z,1.52
2023-01-23T20:22:49.908Z,1.42
2023-01-23T20:26:18.659Z,1.27
2023-01-23T20:29:48.359Z,1.35
2023-01-23T20:33:17.064Z,1.40
2023-01-23T20:35:46.658Z,1.20
2023-01-23T20:39:15.460Z,1.50
2023-01-23T20:42:44.106Z,1.10
2023-01-23T20:46:13.010Z,1.00
2023-01-23T20:49:41.718Z,1.40
2023-01-23T20:53:08.847Z,1.10
2023-01-23T20:56:40.462Z,1.20
2023-01-23T21:00:09.214Z,1.08
2023-01-23T21:03:37.978Z,1.38
2023-01-23T21:07:06.642Z,1.52
2023-01-23T21:10:23.630Z,1.40
2023-01-23T21:12:53.326Z,1.48
2023-01-23T21:16:21.968Z,1.30
2023-01-23T21:19:50.606Z,1.08
2023-01-23T21:23:19.284Z,1.33
2023-01-23T21:26:47.965Z,1.38
2023-01-23T21:30:16.644Z,1.10
2023-01-23T21:33:45.343Z,0.90
2023-01-23T21:37:16.765Z,1.23
2023-01-23T21:39:53.533Z,1.17
2023-01-23T21:43:22.134Z,1.15
2023-01-23T21:45:51.800Z,1.10
2023-01-23T21:49:20.522Z,1.10
2023-01-23T21:52:49.170Z,1.45
2023-01-23T21:56:17.920Z,1.05
2023-01-23T21:59:46.546Z,1.00
2023-01-23T22:03:15.235Z,1.30
2023-01-23T22:06:43.954Z,1.38
2023-01-23T22:10:12.585Z,1.10
2023-01-23T22:13:41.372Z,0.80
2023-01-23T22:17:10.011Z,1.33
2023-01-23T22:19:59.445Z,1.25
2023-01-23T22:22:29.224Z,0.80
2023-01-23T22:24:58.788Z,0.90
2023-01-23T22:28:27.520Z,0.88
2023-01-23T22:31:56.239Z,1.02
2023-01-23T22:35:25.067Z,1.23
2023-01-23T22:38:53.752Z,0.98
2023-01-23T22:42:22.713Z,0.88
2023-01-23T22:45:51.487Z,1.08
2023-01-23T22:49:20.166Z,1.10
2023-01-23T22:52:48.858Z,1.00
2023-01-23T22:55:19.232Z,1.13
2023-01-23T22:57:49.301Z,1.00
2023-01-23T23:01:18.133Z,1.00
2023-01-23T23:04:46.823Z,1.10
2023-01-23T23:08:15.536Z,1.02
2023-01-23T23:11:44.175Z,0.95
2023-01-23T23:29:46.789Z,1.27
2023-01-23T23:32:17.819Z,0.90
2023-01-23T23:34:47.670Z,0.93
2023-01-23T23:37:17.378Z,1.00
2023-01-23T23:39:47.042Z,1.08
2023-01-23T23:42:16.608Z,0.90
2023-01-23T23:44:46.216Z,1.45
2023-01-23T23:47:16.159Z,0.90
2023-01-23T23:49:45.781Z,1.25
2023-01-23T23:52:15.352Z,0.88
2023-01-23T23:54:45.014Z,1.17
2023-01-23T23:58:13.709Z,0.93
